METAR、SPECI、TAF(飛行場実況・予報)


■ METAR、SPECI(飛行場実況)

METAR RJBM 261900Z 14008G21KT 9999 -RA FEW050 SCT080 OVC120 22/14 Q1005 RMK 2SC050 3AC080 8AS120 A2968
METAR RJBM 262000Z 26004KT 9999 FEW030 OVC120 21/15 Q1004 RMK 2CU030 8AS120 A2968
METAR RJBM 262100Z 11005KT 9999 FEW030 SCT120 BKN150 21/14 Q1004 RMK 1CU030 3AC120 7AC150 A2965
METAR RJBM 262200Z 17006KT 9999 FEW030 SCT080 BKN120 22/14 Q1004 RMK 1CU030 3AC080 7AC120 A2965
METAR RJBM 262300Z 25005G18KT 9999 -SHRA FEW020 BKN030 BKN120 22/15 Q1004 RMK 2CU020 5CU030 7AC120 A2966
METAR RJBM 270000Z 25008KT 9999 FEW020 SCT030 BKN120 22/16 Q1003 RMK 1CU020 4CU030 7AC120 A2964
METAR RJBM 270100Z 25007G17KT 180V320 9999 FEW020 SCT030 BKN120 24/17 Q1003 RMK 1CU020 3CU030 6AC120 A2963
METAR RJBM 270200Z 23007G21KT 9999 FEW020 SCT030 BKN/// 25/18 Q1002 RMK 1CU020 3CU030 A2961
METAR RJBM 270300Z 25006G19KT 9999 FEW020 BKN030 BKN/// 26/18 Q1002 RMK 2CU020 6CU030 A2961
METAR RJBM 270400Z 25006G16KT 9999 FEW020 SCT030 BKN/// 27/20 Q1002 RMK 2CU020 4CU030 A2961
METAR RJBM 270500Z 27007KT 9999 FEW030 BKN/// 28/20 Q1001 RMK 2CU030 A2958
METAR RJBM 270600Z 24008KT 9999 SCT030 BKN/// 29/20 Q1001 RMK 3CU030 A2958
METAR RJBM 270700Z 23005KT 9999 FEW020 BKN030 BKN/// 28/20 Q1001 RMK 1CU020 5CU030 A2958
METAR RJBM 270800Z 23003KT 9999 FEW020 SCT030 BKN/// 27/20 Q1001 RMK 1CU020 3CU030 A2959
METAR RJBM 270900Z 26005KT 9999 FEW015 BKN030 BKN100 26/20 Q1002 RMK 1CU015 5CU030 6AC100 A2960
SPECI RJBM 270912Z 06010KT 9999 FEW015 BKN030 BKN100 24/19 Q1002 RMK 1CU015 6CU030 7AC100 A2961
METAR RJBM 271000Z 05008KT 9999 FEW015 BKN030 23/19 Q1003 RMK 2CU015 7CU030 A2964
METAR RJBM 271100Z 03005KT 360V060 9999 FEW010 BKN015 BKN025 22/19 Q1004 RMK 1CU010 5CU015 7CU025 A2966
METAR RJBM 271200Z 36005KT 330V040 9999 FEW010 SCT015 BKN025 22/17 Q1005 RMK 1CU010 3CU015 7CU025 A2969
METAR RJBM 271300Z 09006KT 070V130 9999 FEW015 BKN025 20/16 Q1005 RMK 2CU015 7CU025 A2969
METAR RJBM 271400Z 08011KT 9999 -SHRA SCT015 BKN025 19/16 Q1005 RMK 3CU015 7CU025 A2969
METAR RJBM 271500Z 08008KT 9999 -SHRA FEW008 SCT015 BKN025 18/16 Q1004 RMK 1ST008 3CU015 7CU025 A2967
METAR RJBM 271600Z 08005KT 9999 -SHRA FEW008 BKN025 18/16 Q1004 RMK 1ST008 7CU025 A2966
METAR RJBM 271700Z 08006KT 9999 -SHRA FEW008 SCT015 BKN025 17/16 Q1004 RMK 2ST008 3CU015 7CU025 A2965
METAR RJBM 271800Z 01003KT 300V060 8000 -SHRA FEW008 SCT015 BKN030 17/16 Q1004 RMK 2ST008 3CU015 7CU030 A2966
SPECI RJBM 271842Z VRB02KT 6000 SHRA SCT008 BKN015 BKN025 17/16 Q1004 RMK 3ST008 5CU015 7CU025 A2967
METAR RJBM 271900Z VRB02KT 7000 -SHRA SCT006 SCT015 BKN030 17/16 Q1004 RMK 3ST006 4CU015 7CU030 A2967
SPECI RJBM 271906Z 05002KT 4900 SHRA BR SCT006 BKN015 BKN025 17/16 Q1004 RMK 3ST006 5CU015 7CU025 A2966
SPECI RJBM 271918Z VRB02KT 3100 +SHRA BR SCT006 BKN015 BKN025 FEW025TCU 17/17 Q1004 RMK 3ST006 5CU015 7CU025 1TCU025 A2966 TCU OHD MOV NE
SPECI RJBM 271926Z 04003KT 3200 SHRA BR SCT006 BKN015 BKN025 FEW025TCU 17/17 Q1004 RMK 3ST006 5CU015 7CU025 1TCU025 A2966 TCU 5KM NE MOV NE
SPECI RJBM 271932Z 05005KT 5000 -SHRA BR FEW003 SCT006 BKN025 17/16 Q1004 RMK 1ST003 3ST006 7CU025 A2966
METAR RJBM 272000Z 16004KT 120V190 4900 +SHRA BR FEW006 BKN015 OVC025 FEW025TCU 16/14 Q1005 RMK 2ST006 5CU015 8CU025 1TCU025 A2971 TCU OHD MOV NE P/RR
SPECI RJBM 272002Z 16005KT 110V200 3100 +SHRA BR FEW006 BKN015 OVC025 FEW025TCU 16/14 Q1005 RMK 2ST006 5CU015 8CU025 2TCU025 A2970 TCU OHD MOV NE RI++
SPECI RJBM 272013Z 07007KT 3200 SHRA BR FEW006 BKN015 OVC025 FEW025TCU 16/15 Q1005 RMK 2ST006 6CU015 8CU025 1TCU025 A2968 TCU 10KM NE MOV NE
SPECI RJBM 272042Z 07006KT 5000 -SHRA BR FEW006 BKN015 OVC025 16/14 Q1005 RMK 2ST006 5CU015 8CU025 A2969
METAR RJBM 272100Z 35003KT 320V020 8000 -SHRA FEW006 BKN015 BKN025 16/15 Q1005 RMK 2ST006 5CU015 7CU025 A2969
SPECI RJBM 272104Z 36005KT 6000 SHRA FEW006 BKN015 BKN025 16/14 Q1005 RMK 2ST006 5CU015 7CU025 A2969
SPECI RJBM 272113Z 02003KT 350V090 4900 +SHRA BR SCT006 BKN015 OVC025 15/14 Q1005 RMK 3ST006 6CU015 8CU025 A2970
METAR RJBM 272200Z 30003KT 4500 +SHRA BR SCT005 BKN015 OVC025 15/14 Q1005 RMK 3ST005 6CU015 8CU025 A2969
SPECI RJBM 272208Z 30003KT 270V360 5000 SHRA BR SCT005 BKN015 OVC025 15/14 Q1005 RMK 3ST005 5CU015 8CU025 A2969
METAR RJBM 272300Z 28005KT 6000 SHRA FEW005 BKN015 OVC025 15/14 Q1005 RMK 2ST005 6CU015 8CU025 A2968
METAR RJBM 280000Z 32003KT 260V010 4500 SHRA BR FEW005 BKN015 OVC025 15/15 Q1004 RMK 2ST005 6CU015 8CU025 A2967
METAR RJBM 280100Z VRB02KT 4000 SHRA BR FEW001 SCT005 OVC015 15/14 Q1004 RMK 1ST001 4ST005 8CU015 A2967
METAR RJBM 280200Z VRB01KT 4500 SHRA BR FEW001 SCT005 OVC015 15/14 Q1003 RMK 1ST001 3ST005 8CU015 A2964
METAR RJBM 280300Z VRB02KT 4500 SHRA BR FEW005 BKN015 OVC025 15/14 Q1003 RMK 2ST005 5CU015 8CU025 A2962
METAR RJBM 280400Z VRB02KT 4000 SHRA BR SCT005 BKN015 OVC025 15/14 Q1001 RMK 3ST005 6CU015 8CU025 A2958
METAR RJBM 280500Z 02006KT 350V060 3000 +SHRA BR FEW003 SCT005 OVC015 15/14 Q1001 RMK 1ST003 4ST005 8CU015 A2957
METAR RJBM 280600Z VRB01KT 2500 +SHRA BR FEW003 SCT005 OVC015 15/14 Q1000 RMK 1ST003 4ST005 8CU015 A2954
SPECI RJBM 280628Z 06011KT 3000 SHRA BR FEW003 SCT005 OVC015 15/14 Q0999 RMK 1ST003 4ST005 8CU015 A2950 P/FR
SPECI RJBM 280636Z 06009KT 020V090 3200 SHRA BR FEW003 SCT005 OVC015 15/14 Q0998 RMK 1ST003 3ST005 8CU015 A2948 P/FR
METAR RJBM 280700Z 02008KT 350V060 4000 SHRA BR FEW003 SCT005 OVC015 15/14 Q0998 RMK 1ST003 3ST005 8CU015 A2948
SPECI RJBM 280714Z 01007KT 5000 SHRA BR FEW005 OVC015 15/14 Q0998 RMK 2ST005 8CU015 A2948
METAR RJBM 280800Z 36010KT 5000 SHRA BR FEW005 OVC015 15/14 Q0998 RMK 2ST005 8CU015 A2949
SPECI RJBM 280840Z 32013KT 8000 -SHRA FEW005 OVC015 16/13 Q0999 RMK 1ST005 8CU015 A2953
METAR RJBM 280900Z 32011KT 9999 -SHRA FEW005 BKN015 16/14 Q1000 RMK 1ST005 7CU015 A2954
SPECI RJBM 280909Z 32012KT 280V360 4900 -SHRA BR SCT005 BKN015 15/13 Q1000 RMK 3ST005 7CU015 A2955
METAR RJBM 281000Z 34012KT 310V010 7000 -SHRA FEW005 BKN015 15/13 Q1002 RMK 2ST005 7CU015 A2959
METAR RJBM 281100Z 01005KT 320V130 9999 -SHRA FEW008 BKN015 15/14 Q1003 RMK 2ST008 7CU015 A2964
METAR RJBM 281200Z 34010KT 310V010 8000 -SHRA SCT008 BKN015 15/13 Q1004 RMK 3ST008 7CU015 A2966
METAR RJBM 281300Z 32007KT 290V350 8000 -SHRA SCT008 BKN015 15/13 Q1005 RMK 3ST008 7CU015 A2968
METAR RJBM 281400Z 31007KT 8000 -SHRA FEW008 BKN015 15/13 Q1005 RMK 2ST008 7CU015 A2969
METAR RJBM 281500Z 25004KT 220V280 9999 -SHRA FEW008 BKN015 BKN030 15/13 Q1005 RMK 2ST008 5CU015 7CU030 A2969
METAR RJBM 281600Z VRB01KT 8000 -SHRA FEW005 BKN015 BKN030 14/14 Q1006 RMK 2ST005 5CU015 7CU030 A2971
METAR RJBM 281700Z 15002KT 8000 -SHRA FEW005 BKN015 15/14 Q1006 RMK 2ST005 7CU015 A2974
METAR RJBM 281800Z 31005KT 280V010 9999 FEW005 BKN015 BKN030 15/12 Q1007 RMK 1ST005 5CU015 7CU030 A2975
METAR RJBM 281900Z 26003KT 220V310 9999 SCT015 BKN030 15/12 Q1008 RMK 3CU015 7CU030 A2979
METAR RJBM 282000Z VRB02KT 9999 FEW015 BKN030 14/13 Q1010 RMK 2CU015 7CU030 A2983
METAR RJBM 282100Z VRB02KT 9999 FEW006 BKN030 14/13 Q1010 RMK 1ST006 7CU030 A2985
METAR RJBM 282200Z 15004KT 120V200 9999 FEW006 BKN030 15/13 Q1011 RMK 1ST006 7CU030 A2988
METAR RJBM 282300Z VRB02KT 9999 FEW020 BKN030 16/13 Q1012 RMK 1CU020 7CU030 A2989
METAR RJBM 290000Z 01005KT 9999 FEW025 BKN040 17/11 Q1012 RMK 1CU025 7CU040 A2990
METAR RJBM 290100Z 33006KT 290V020 9999 FEW025 BKN040 18/10 Q1012 RMK 1CU025 7CU040 A2990
METAR RJBM 290200Z 01010KT 310V040 9999 FEW030 BKN040 20/11 Q1012 RMK 1CU030 6CU040 A2990
METAR RJBM 290300Z 03015KT 9999 FEW030 BKN040 19/12 Q1012 RMK 1CU030 5CU040 A2991
METAR RJBM 290400Z 02014KT 9999 FEW030 BKN040 19/12 Q1013 RMK 1CU030 5CU040 A2992
METAR RJBM 290500Z 02009KT 9999 FEW020 BKN030 19/12 Q1014 RMK 1CU020 6CU030 A2995
METAR RJBM 290600Z 04006KT 9999 FEW020 SCT030 21/13 Q1014 RMK 1CU020 4CU030 A2996
METAR RJBM 290700Z 02014KT 9999 FEW030 20/12 Q1014 RMK 1CU030 A2995
METAR RJBM 290800Z 02011KT 9999 FEW020 SCT/// 19/12 Q1014 RMK 1CU020 A2995
METAR RJBM 290900Z 02009KT 9999 FEW020 19/12 Q1014 RMK 1CU020 A2997
METAR RJBM 291000Z 07009KT 9999 FEW020 BKN/// 17/12 Q1014 RMK 1CU020 A2995
METAR RJBM 291100Z 04004KT 020V080 9999 FEW020 BKN/// 16/12 Q1014 RMK 1CU020 A2996
METAR RJBM 291200Z VRB01KT 9999 FEW030 BKN/// 15/12 Q1015 RMK 1CU030 A2998
METAR RJBM 291300Z 07004KT 030V120 9999 FEW030 14/12 Q1014 RMK 1CU030 A2995
METAR RJBM 291400Z VRB01KT 9999 FEW030 13/12 Q1014 RMK 1CU030 A2996
METAR RJBM 291500Z 14004KT 9999 FEW/// 13/11 Q1014 RMK A2996
METAR RJBM 291600Z VRB01KT 9999 FEW005 12/11 Q1014 RMK 1ST005 A2995
METAR RJBM 291700Z 15005KT 9999 FEW005 13/11 Q1015 RMK 1ST005 A2998
METAR RJBM 291800Z 15004KT 9999 FEW005 12/11 Q1015 RMK 1ST005 A2999
METAR RJBM 291900Z VRB02KT 9999 FEW002 12/11 Q1015 RMK 1ST002 A2997
METAR RJBM 292000Z 18003KT 5000 BR FEW001 BKN003 11/11 Q1015 RMK 2ST001 6ST003 A2998
SPECI RJBM 292005Z 19003KT 150V230 4900 BR FEW001 BKN003 11/10 Q1015 RMK 2ST001 7ST003 A2997
METAR RJBM 292100Z 20002KT 4500 BR FEW001 BKN003 12/11 Q1014 RMK 2ST001 7ST003 A2997
SPECI RJBM 292116Z VRB02KT 5000 BR FEW003 BKN005 12/11 Q1014 RMK 2ST003 6ST005 A2997
METAR RJBM 292200Z 00000KT 9999 FEW005 BKN/// 12/11 Q1014 RMK 2ST005 A2997
METAR RJBM 292300Z 35003KT 9999 FEW030 BKN/// 14/11 Q1014 RMK 1CU030 A2997
METAR RJBM 300000Z 36003KT 320V030 9999 FEW180 BKN/// 16/12 Q1014 RMK 1AC180 A2996
METAR RJBM 300100Z 08003KT 9999 FEW180 BKN/// 19/12 Q1014 RMK 1AC180 A2995
METAR RJBM 300200Z 08002KT 9999 FEW150 BKN/// 22/13 Q1013 RMK 1AC150 A2993
METAR RJBM 300300Z VRB01KT 9999 SCT150 BKN250 24/13 Q1012 RMK 3AC150 A2990
METAR RJBM 300400Z 22003KT 9999 FEW030 SCT150 BKN230 26/11 Q1012 RMK 1CU030 4AC150 A2989
METAR RJBM 300500Z 25005G17KT 9999 FEW030 SCT150 BKN230 26/11 Q1011 RMK 1CU030 4AC150 A2988
METAR RJBM 300600Z 27003KT 9999 FEW030 SCT150 BKN230 27/11 Q1011 RMK 1CU030 3AC150 A2988
METAR RJBM 300700Z 33003KT 9999 FEW030 SCT120 BKN230 26/12 Q1010 RMK 1CU030 4AC120 A2985
METAR RJBM 300800Z VRB02KT 9999 FEW030 SCT120 BKN230 25/13 Q1010 RMK 1CU030 4AC120 A2983
METAR RJBM 300900Z 27007KT 9999 FEW030 BKN120 BKN230 22/16 Q1011 RMK 1CU030 5AC120 A2986
METAR RJBM 301000Z VRB02KT 9999 FEW030 BKN120 BKN230 22/16 Q1011 RMK 1CU030 5AC120 A2988
METAR RJBM 301100Z 04004KT 9999 FEW030 BKN120 BKN230 21/16 Q1011 RMK 1CU030 6AC120 A2987

■ TAF(飛行場予報)


				

お知らせ

新着情報

  • 太陽光発電量推算
  • 気象予報士試験過去問・講座
  • Yahoo Weather shop
  • メルカリ Weather shop

ご案内